Time;durP1;ratioP1;P1;durP2;ratioP2;P2;SDS_P1;SDS_P2;PMS_P1;PMS_P2;Temp;Humidity;BMP_temperature;BMP_pressure;BME280_temperature;BME280_humidity;BME280_pressure;Samples;Min_cycle;Max_cycle;Signal;HPM_P1;HPM_P2
2021/11/03 08:43:18;;;;;;;4.97;2.90;;;;;;;8.19;95.52;97388.16;5164430;27;20562;-79
2021/11/03 08:45:46;;;;;;;3.70;2.70;;;;;;;8.51;94.64;97371.72;5145025;27;39005;-78
2021/11/03 08:48:14;;;;;;;3.37;2.63;;;;;;;9.16;91.26;97399.97;5147516;27;41191;-78
2021/11/03 08:50:43;;;;;;;3.30;2.80;;;;;;;9.42;88.01;97385.50;5147854;27;41606;-77
2021/11/03 08:53:12;;;;;;;2.83;2.53;;;;;;;9.76;85.35;97393.34;5148172;27;40974;-77
2021/11/03 08:55:40;;;;;;;3.13;2.13;;;;;;;10.08;83.72;97392.31;5158229;27;40036;-77
2021/11/03 08:58:13;;;;;;;2.17;1.97;;;;;;;10.32;80.95;97397.38;5130624;27;41554;-79
2021/11/03 09:00:46;;;;;;;2.13;1.93;;;;;;;10.47;81.05;97383.81;5125899;27;43509;-78
2021/11/03 09:03:14;;;;;;;2.70;2.07;;;;;;;10.74;79.26;97400.81;5140555;27;41167;-78
2021/11/03 09:05:43;;;;;;;3.17;2.10;;;;;;;10.94;78.30;97414.97;5141987;27;39256;-77
2021/11/03 09:08:11;;;;;;;3.63;2.30;;;;;;;11.07;77.66;97410.28;5145324;27;41233;-77
2021/11/03 09:10:45;;;;;;;3.60;3.10;;;;;;;11.14;75.84;97405.28;5148928;27;41892;-77
2021/11/03 09:13:16;;;;;;;2.60;2.30;;;;;;;11.25;74.64;97420.25;5147341;27;41549;-78
2021/11/03 09:15:45;;;;;;;3.83;2.57;;;;;;;11.26;73.14;97421.91;5165346;27;40144;-78
2021/11/03 09:18:13;;;;;;;3.73;2.37;;;;;;;11.30;73.89;97405.59;5165767;27;41680;-77
2021/11/03 09:20:41;;;;;;;3.07;2.30;;;;;;;11.45;72.47;97414.03;5146782;27;43319;-77
2021/11/03 09:23:10;;;;;;;4.73;2.90;;;;;;;11.55;71.70;97414.88;5165966;27;43106;-77
2021/11/03 09:25:38;;;;;;;4.10;2.97;;;;;;;11.60;71.02;97410.00;5159858;27;38987;-77
2021/11/03 09:28:06;;;;;;;2.80;2.40;;;;;;;11.68;72.15;97407.50;5147937;27;42751;-79
2021/11/03 09:30:36;;;;;;;4.23;3.10;;;;;;;11.78;71.39;97389.81;5126649;27;41529;-77
2021/11/03 09:33:07;;;;;;;3.87;3.10;;;;;;;11.88;70.12;97395.09;5145013;27;43608;-78
2021/11/03 09:35:40;;;;;;;3.70;2.47;;;;;;;11.93;69.88;97397.34;5125547;27;39003;-78
2021/11/03 09:38:08;;;;;;;3.53;2.80;;;;;;;11.97;69.34;97398.75;5109965;27;40912;-78
2021/11/03 09:40:43;;;;;;;4.17;2.80;;;;;;;12.03;69.45;97392.88;5126532;27;42155;-78
2021/11/03 09:43:31;;;;;;;3.70;3.20;;;;;;;12.12;68.91;97382.25;5141814;27;43418;-77
2021/11/03 09:46:02;;;;;;;3.37;2.47;;;;;;;12.03;68.31;97382.25;5126860;27;38896;-79
2021/11/03 09:48:33;;;;;;;4.03;2.37;;;;;;;12.13;69.18;97383.91;5161894;27;42512;-79
2021/11/03 09:51:05;;;;;;;3.70;2.90;;;;;;;12.12;69.00;97392.00;5140033;27;41888;-78
2021/11/03 09:53:39;;;;;;;3.00;2.27;;;;;;;12.10;68.92;97388.69;5140653;27;43121;-79
2021/11/03 09:56:13;;;;;;;3.07;2.30;;;;;;;12.09;69.03;97393.16;5135885;27;38625;-80
2021/11/03 09:59:03;;;;;;;3.70;2.97;;;;;;;12.04;68.92;97405.16;5148994;27;41546;-78
2021/11/03 10:01:47;;;;;;;4.13;2.80;;;;;;;11.99;68.39;97407.41;5134140;27;42672;-78
2021/11/03 10:04:36;;;;;;;2.77;2.50;;;;;;;11.88;68.43;97393.28;5140624;27;42855;-77
2021/11/03 10:07:10;;;;;;;3.97;2.87;;;;;;;11.91;68.45;97394.00;5135508;27;40122;-79
2021/11/03 10:09:38;;;;;;;3.17;2.30;;;;;;;11.96;69.02;97391.78;5135850;27;40798;-78
2021/11/03 10:12:11;;;;;;;3.40;2.60;;;;;;;12.05;69.15;97386.44;5152196;27;42731;-78
2021/11/03 10:14:40;;;;;;;3.03;2.40;;;;;;;12.15;68.66;97373.16;5118500;27;41228;-77
2021/11/03 10:17:20;;;;;;;2.80;2.13;;;;;;;12.31;68.62;97369.94;5145549;27;40756;-78
2021/11/03 10:19:48;;;;;;;2.63;2.03;;;;;;;12.43;68.38;97374.94;5145119;27;42386;-80
2021/11/03 10:22:34;;;;;;;4.50;2.77;;;;;;;12.47;67.89;97376.34;5132649;27;41773;-79
2021/11/03 10:25:20;;;;;;;3.97;2.60;;;;;;;12.51;67.12;97393.63;5153264;27;41182;-78
2021/11/03 10:27:52;;;;;;;2.97;2.30;;;;;;;12.43;66.98;97382.91;5121863;27;40513;-78
2021/11/03 10:30:30;;;;;;;2.97;2.30;;;;;;;12.51;66.29;97398.09;5141272;27;42867;-78
2021/11/03 10:33:09;;;;;;;5.70;2.63;;;;;;;12.55;66.26;97389.72;5132896;27;42842;-78
2021/11/03 10:35:41;;;;;;;3.60;2.23;;;;;;;12.55;66.44;97384.41;5132252;27;42365;-78
2021/11/03 10:38:13;;;;;;;2.97;2.17;;;;;;;12.60;66.36;97399.91;5114490;27;38958;-79
2021/11/03 10:40:55;;;;;;;3.50;2.30;;;;;;;12.63;66.58;97385.50;5139708;27;41833;-78
2021/11/03 10:43:28;;;;;;;3.50;2.53;;;;;;;12.59;66.38;97385.81;5152057;27;42796;-77
2021/11/03 10:45:59;;;;;;;2.80;2.40;;;;;;;12.55;66.65;97383.56;5136313;27;43193;-78
2021/11/03 10:48:30;;;;;;;2.90;2.30;;;;;;;12.50;66.87;97376.03;5113426;27;39079;-79
2021/11/03 10:51:12;;;;;;;2.40;1.80;;;;;;;12.43;66.93;97369.63;5129678;27;40799;-78
2021/11/03 10:53:53;;;;;;;4.17;2.40;;;;;;;12.41;66.86;97371.59;5114047;27;41844;-78
2021/11/03 10:56:27;;;;;;;2.63;1.87;;;;;;;12.33;67.38;97346.75;5131704;27;42184;-79
2021/11/03 10:59:05;;;;;;;2.90;2.10;;;;;;;12.44;67.32;97355.38;5131175;27;39566;-77
2021/11/03 11:01:38;;;;;;;3.00;2.60;;;;;;;12.48;66.44;97367.38;5133759;27;41855;-79
2021/11/03 11:04:13;;;;;;;2.33;1.97;;;;;;;12.51;65.74;97369.72;5133075;27;41644;-79
2021/11/03 11:06:47;;;;;;;2.50;2.10;;;;;;;12.49;65.40;97361.06;5113300;27;42080;-77
2021/11/03 11:09:24;;;;;;;2.30;1.90;;;;;;;12.39;65.44;97357.59;5131533;27;38914;-78
2021/11/03 11:11:57;;;;;;;1.90;1.60;;;;;;;12.36;66.19;97354.44;5153037;27;41745;-78
2021/11/03 11:14:29;;;;;;;2.27;1.90;;;;;;;12.40;65.88;97348.66;5150321;27;42649;-78
2021/11/03 11:17:00;;;;;;;1.60;1.37;;;;;;;12.52;66.19;97326.28;5129977;27;42156;-77
2021/11/03 11:19:38;;;;;;;1.70;1.60;;;;;;;12.70;65.86;97328.19;5151780;27;40341;-77
2021/11/03 11:22:17;;;;;;;2.00;1.57;;;;;;;12.93;65.41;97334.78;5130893;27;41765;-77
2021/11/03 11:24:55;;;;;;;2.10;1.90;;;;;;;13.15;65.31;97318.44;5113572;27;41752;-77
2021/11/03 11:27:27;;;;;;;2.23;2.00;;;;;;;13.56;64.33;97348.13;5130599;27;42366;-77
2021/11/03 11:30:03;;;;;;;2.63;2.00;;;;;;;13.71;62.82;97357.25;5144433;27;38955;-77
2021/11/03 11:32:42;;;;;;;3.33;2.23;;;;;;;13.77;63.33;97348.66;5152554;27;42433;-78
2021/11/03 11:35:18;;;;;;;4.80;2.10;;;;;;;13.94;62.77;97353.16;5130240;27;43625;-78
2021/11/03 11:38:01;;;;;;;2.67;1.87;;;;;;;13.97;61.56;97342.16;5130709;27;41248;-77
2021/11/03 11:40:41;;;;;;;2.20;1.90;;;;;;;14.02;61.89;97339.88;5131056;27;40898;-77
2021/11/03 11:43:17;;;;;;;4.13;2.60;;;;;;;14.07;61.05;97351.91;5144941;27;41266;-78
2021/11/03 11:45:45;;;;;;;3.23;2.13;;;;;;;14.14;61.12;97337.81;5133577;27;41907;-78
2021/11/03 11:48:22;;;;;;;2.07;1.80;;;;;;;13.91;61.08;97300.22;5117744;27;42311;-78
2021/11/03 11:50:55;;;;;;;2.43;1.90;;;;;;;14.29;61.60;97346.09;5113055;27;40374;-78
2021/11/03 11:53:29;;;;;;;1.90;1.70;;;;;;;14.43;60.73;97348.22;5143320;27;40911;-77
2021/11/03 11:56:21;;;;;;;2.40;1.63;;;;;;;14.65;60.59;97353.00;5133789;27;41680;-77
2021/11/03 11:58:53;;;;;;;1.67;1.57;;;;;;;14.84;59.37;97378.56;5129753;27;42339;-78
2021/11/03 12:01:28;;;;;;;2.30;2.10;;;;;;;14.92;59.20;97375.13;5126492;27;39323;-77
2021/11/03 12:04:24;;;;;;;1.80;1.63;;;;;;;14.96;59.46;97376.50;5149819;27;41929;-78
2021/11/03 12:07:22;;;;;;;2.93;2.13;;;;;;;14.87;59.90;97372.09;5150899;27;42909;-78
2021/11/03 12:10:27;;;;;;;2.60;1.97;;;;;;;14.78;59.53;97367.72;5147304;27;43090;-77
2021/11/03 12:13:27;;;;;;;2.43;1.83;;;;;;;14.61;59.00;97372.94;5014415;28;38961;-77
2021/11/03 12:16:24;;;;;;;1.70;1.60;;;;;;;14.50;58.77;97359.91;5129481;27;41092;-78
2021/11/03 12:18:54;;;;;;;2.80;1.90;;;;;;;14.37;58.33;97370.94;5083811;27;43252;-77
2021/11/03 12:21:58;;;;;;;2.00;1.80;;;;;;;14.21;58.96;97354.84;5137758;27;42242;-78
2021/11/03 12:24:35;;;;;;;1.93;1.47;;;;;;;14.07;60.30;97341.25;5150711;27;39927;-78
2021/11/03 12:27:27;;;;;;;2.13;1.93;;;;;;;13.92;59.81;97347.13;5144183;27;40577;-77
2021/11/03 12:29:56;;;;;;;2.10;1.90;;;;;;;13.84;60.39;97335.59;5120117;27;41867;-77
2021/11/03 12:32:32;;;;;;;2.50;1.80;;;;;;;13.77;60.25;97330.03;5143534;27;41153;-77
2021/11/03 12:35:26;;;;;;;2.17;1.83;;;;;;;13.77;60.73;97327.38;5129041;27;38843;-78
2021/11/03 12:37:59;;;;;;;3.00;2.27;;;;;;;13.78;60.79;97334.38;5129734;27;41768;-78
2021/11/03 12:40:32;;;;;;;3.23;1.97;;;;;;;13.69;60.46;97332.63;5128269;27;42949;-77
2021/11/03 12:43:13;;;;;;;1.93;1.43;;;;;;;13.58;61.08;97324.88;5111075;27;42165;-77
2021/11/03 12:45:50;;;;;;;2.00;1.40;;;;;;;13.48;61.94;97310.78;5129281;27;40787;-78
2021/11/03 12:48:21;;;;;;;2.93;1.80;;;;;;;13.56;62.59;97308.22;5111965;27;42129;-77
2021/11/03 12:50:49;;;;;;;2.43;1.83;;;;;;;13.54;62.16;97308.38;5122592;27;41697;-77
2021/11/03 12:53:21;;;;;;;1.90;1.80;;;;;;;13.60;61.99;97302.44;5150148;27;41434;-78
2021/11/03 12:55:57;;;;;;;3.53;1.73;;;;;;;13.72;62.51;97300.41;5151031;27;40039;-78
2021/11/03 12:58:33;;;;;;;1.70;1.60;;;;;;;13.74;61.63;97287.75;5149455;27;41130;-77
2021/11/03 13:01:05;;;;;;;2.37;2.27;;;;;;;13.76;61.93;97291.09;5132767;27;42562;-77
2021/11/03 13:03:38;;;;;;;2.87;1.77;;;;;;;13.80;60.59;97307.59;5147387;27;42151;-78
2021/11/03 13:06:06;;;;;;;3.67;2.80;;;;;;;13.70;59.53;97302.38;5148971;27;39297;-77
2021/11/03 13:08:41;;;;;;;4.67;2.20;;;;;;;13.53;59.96;97280.13;5140466;27;42081;-77
2021/11/03 13:11:19;;;;;;;1.93;1.80;;;;;;;13.50;60.51;97295.53;5122025;27;41756;-78
2021/11/03 13:13:50;;;;;;;2.97;1.60;;;;;;;13.49;61.03;97293.84;5127872;27;42424;-78
2021/11/03 13:16:24;;;;;;;3.80;1.87;;;;;;;13.47;60.73;97302.00;5112277;27;40227;-79
2021/11/03 13:18:53;;;;;;;1.77;1.57;;;;;;;13.38;61.17;97302.91;5133772;27;42494;-77
2021/11/03 13:21:28;;;;;;;1.60;1.50;;;;;;;13.34;61.80;97285.59;5127862;27;41797;-79
2021/11/03 13:24:03;;;;;;;1.70;1.53;;;;;;;13.27;62.42;97280.03;5129777;27;42986;-78
2021/11/03 13:26:35;;;;;;;1.67;1.40;;;;;;;13.20;63.06;97271.00;5129892;27;41255;-78
2021/11/03 13:29:05;;;;;;;1.93;1.20;;;;;;;13.14;63.32;97273.38;5130823;27;40935;-78
2021/11/03 13:31:37;;;;;;;1.30;1.13;;;;;;;13.08;63.70;97269.53;5150049;27;42527;-78
2021/11/03 13:34:18;;;;;;;1.87;1.50;;;;;;;13.04;63.72;97270.78;5153343;27;41325;-78
2021/11/03 13:37:00;;;;;;;1.87;1.43;;;;;;;12.93;64.04;97249.75;5149693;27;39988;-77
2021/11/03 13:39:31;;;;;;;1.60;1.50;;;;;;;13.01;64.48;97260.47;5116065;27;40868;-78
2021/11/03 13:42:01;;;;;;;1.73;1.33;;;;;;;13.09;64.56;97268.53;5132059;27;44570;-78
2021/11/03 13:44:40;;;;;;;2.07;1.53;;;;;;;13.22;64.26;97281.50;5132041;27;41253;-78
2021/11/03 13:47:23;;;;;;;2.00;1.57;;;;;;;13.34;63.73;97309.53;5133295;27;39963;-77
2021/11/03 13:50:18;;;;;;;1.60;1.50;;;;;;;13.33;62.98;97320.31;5124513;27;40670;-78
2021/11/03 13:52:55;;;;;;;1.43;1.30;;;;;;;13.26;62.38;97336.00;5135457;27;41926;-78
2021/11/03 13:55:25;;;;;;;2.13;1.67;;;;;;;13.21;62.29;97348.94;5152841;27;41348;-78
2021/11/03 13:57:54;;;;;;;2.97;1.97;;;;;;;13.16;62.36;97351.19;5140320;27;40639;-79
2021/11/03 14:00:25;;;;;;;2.50;1.97;;;;;;;13.11;62.51;97359.56;5123874;27;41177;-81
2021/11/03 14:02:54;;;;;;;1.67;1.43;;;;;;;13.08;62.57;97349.25;5152868;27;43516;-78
2021/11/03 14:05:34;;;;;;;1.80;1.63;;;;;;;12.99;62.27;97334.16;5147796;27;42274;-83
2021/11/03 14:08:03;;;;;;;1.97;1.77;;;;;;;13.10;62.95;97341.97;5153967;27;40570;-79
2021/11/03 14:10:32;;;;;;;1.30;1.20;;;;;;;13.10;62.88;97331.34;5150551;27;41024;-83
2021/11/03 14:13:01;;;;;;;1.93;1.63;;;;;;;13.05;63.25;97322.13;5132950;27;42976;-80
2021/11/03 14:15:29;;;;;;;1.33;1.23;;;;;;;13.06;63.36;97332.59;5114316;27;42436;-80
2021/11/03 14:17:56;;;;;;;1.30;1.20;;;;;;;13.04;63.42;97325.75;5132054;27;40032;-80
2021/11/03 14:20:39;;;;;;;1.70;1.60;;;;;;;12.87;63.52;97311.44;5128129;27;42133;-81
2021/11/03 14:23:13;;;;;;;1.27;1.17;;;;;;;12.92;63.81;97325.13;5153344;27;44265;-83
2021/11/03 14:25:41;;;;;;;1.60;1.40;;;;;;;12.77;63.58;97308.00;5124352;27;41544;-82
2021/11/03 14:28:13;;;;;;;1.90;1.43;;;;;;;12.78;63.87;97320.28;5151927;27;39030;-80
2021/11/03 14:30:44;;;;;;;2.20;1.50;;;;;;;12.73;64.53;97314.59;5150521;27;42667;-84
2021/11/03 14:33:20;;;;;;;2.83;1.80;;;;;;;12.62;64.42;97293.53;5114477;27;42047;-79
2021/11/03 14:35:48;;;;;;;2.77;1.57;;;;;;;12.67;65.03;97301.91;5150411;27;41339;-79
2021/11/03 14:38:22;;;;;;;1.73;1.63;;;;;;;12.61;65.25;97291.88;5134882;27;39122;-79
2021/11/03 14:40:50;;;;;;;2.87;1.70;;;;;;;12.51;65.49;97297.22;5113251;27;42414;-77
2021/11/03 14:43:19;;;;;;;1.97;1.60;;;;;;;12.36;66.08;97296.88;5137395;27;44584;-81
2021/11/03 14:45:47;;;;;;;2.20;1.93;;;;;;;12.27;66.24;97310.97;5139799;27;42192;-83
2021/11/03 14:48:16;;;;;;;1.90;1.40;;;;;;;12.14;66.49;97307.81;5130701;27;40079;-80
2021/11/03 14:50:45;;;;;;;2.23;1.83;;;;;;;12.15;66.68;97322.75;5114395;27;40290;-79
2021/11/03 14:53:16;;;;;;;1.50;1.20;;;;;;;12.11;66.75;97326.69;5133103;27;44116;-79
2021/11/03 14:55:47;;;;;;;2.10;1.43;;;;;;;12.09;67.14;97324.16;5152574;27;40839;-80
2021/11/03 14:58:16;;;;;;;2.77;1.80;;;;;;;12.07;67.20;97335.91;5152138;27;38763;-80
2021/11/03 15:00:47;;;;;;;3.17;1.87;;;;;;;12.01;67.04;97337.28;5145554;27;42442;-78
2021/11/03 15:03:17;;;;;;;2.07;1.87;;;;;;;12.04;67.28;97346.78;5151602;27;42839;-79
2021/11/03 15:05:46;;;;;;;1.60;1.43;;;;;;;12.03;67.33;97339.81;5133356;27;41399;-83
2021/11/03 15:08:19;;;;;;;2.83;1.67;;;;;;;12.00;67.41;97334.78;5135272;27;39788;-82
2021/11/03 15:10:48;;;;;;;3.47;2.10;;;;;;;11.96;67.32;97338.72;5116966;27;40752;-80
2021/11/03 15:13:16;;;;;;;1.63;1.50;;;;;;;11.92;67.24;97358.53;5133173;27;43067;-82
2021/11/03 15:15:46;;;;;;;2.20;1.47;;;;;;;11.87;67.56;97351.81;5138848;27;41473;-80
2021/11/03 15:18:19;;;;;;;1.63;1.23;;;;;;;11.79;67.79;97338.44;5129631;27;39088;-82
2021/11/03 15:20:47;;;;;;;2.17;1.80;;;;;;;11.80;67.91;97336.63;5116980;27;40736;-80
2021/11/03 15:23:18;;;;;;;3.23;1.70;;;;;;;11.73;67.84;97316.94;5130874;27;43156;-82
2021/11/03 15:25:46;;;;;;;3.10;1.77;;;;;;;11.71;68.13;97319.72;5129829;27;42204;-79
2021/11/03 15:28:15;;;;;;;1.63;1.03;;;;;;;11.68;68.31;97325.28;5129760;27;40328;-78
2021/11/03 15:30:45;;;;;;;1.27;1.17;;;;;;;11.63;68.15;97330.16;5112653;27;41829;-80
2021/11/03 15:33:15;;;;;;;1.67;1.33;;;;;;;11.58;68.03;97331.56;5129202;27;43298;-80
2021/11/03 15:35:45;;;;;;;1.20;1.10;;;;;;;11.52;68.17;97341.75;5151288;27;41080;-80
2021/11/03 15:38:19;;;;;;;1.30;1.20;;;;;;;11.46;68.27;97330.88;5133289;27;39144;-79
2021/11/03 15:40:49;;;;;;;1.53;1.30;;;;;;;11.51;68.25;97349.84;5150921;27;41723;-78
2021/11/03 15:43:18;;;;;;;1.60;1.27;;;;;;;11.49;68.57;97355.31;5133918;27;41443;-80
2021/11/03 15:45:47;;;;;;;1.20;1.10;;;;;;;11.48;68.77;97350.13;5150372;27;42858;-81
2021/11/03 15:48:17;;;;;;;1.90;1.17;;;;;;;11.46;68.76;97346.78;5116695;27;39694;-82
2021/11/03 15:50:45;;;;;;;1.37;1.00;;;;;;;11.34;68.37;97331.97;5124412;27;41678;-82
2021/11/03 15:53:16;;;;;;;1.57;0.90;;;;;;;11.30;68.76;97341.16;5122764;27;42804;-83
2021/11/03 15:55:45;;;;;;;1.33;1.10;;;;;;;11.37;68.96;97363.50;5151146;27;41156;-79
2021/11/03 15:58:13;;;;;;;1.80;1.13;;;;;;;11.34;68.88;97369.91;5126029;27;39762;-79
2021/11/03 16:00:44;;;;;;;2.63;1.57;;;;;;;11.29;68.83;97356.22;5132220;27;40645;-78
2021/11/03 16:03:27;;;;;;;0.87;0.87;;;;;;;11.31;69.28;97353.44;5151906;27;42641;-80
2021/11/03 16:05:55;;;;;;;1.47;1.37;;;;;;;11.24;69.38;97345.22;5149913;27;41996;-80
2021/11/03 16:08:25;;;;;;;1.40;1.20;;;;;;;11.24;69.25;97347.03;5150848;27;41436;-80
2021/11/03 16:10:54;;;;;;;1.33;1.23;;;;;;;11.20;69.42;97362.34;5133339;27;40618;-79
2021/11/03 16:13:22;;;;;;;2.60;1.90;;;;;;;11.14;69.79;97369.03;5150606;27;41403;-83
2021/11/03 16:15:51;;;;;;;1.47;1.37;;;;;;;11.08;70.15;97363.44;5150249;27;42419;-84
2021/11/03 16:18:26;;;;;;;1.63;1.47;;;;;;;10.97;70.10;97359.09;5133356;27;40961;-77
2021/11/03 16:20:55;;;;;;;3.20;2.37;;;;;;;10.96;70.52;97375.13;5130471;27;42371;-78
2021/11/03 16:23:26;;;;;;;1.60;1.50;;;;;;;10.92;70.66;97373.69;5113291;27;42460;-78
2021/11/03 16:25:56;;;;;;;3.07;1.70;;;;;;;10.87;70.71;97368.81;5144884;27;42814;-82
2021/11/03 16:28:26;;;;;;;2.23;1.97;;;;;;;10.83;70.74;97369.22;5151596;27;40457;-79
2021/11/03 16:30:57;;;;;;;3.97;2.00;;;;;;;10.79;70.90;97373.94;5150630;27;42096;-79
2021/11/03 16:33:27;;;;;;;2.17;1.80;;;;;;;10.74;71.16;97370.88;5151644;27;43713;-80
2021/11/03 16:35:56;;;;;;;3.43;1.77;;;;;;;10.74;70.97;97377.00;5150067;27;43103;-76
2021/11/03 16:38:27;;;;;;;3.10;1.90;;;;;;;10.64;71.52;97365.50;5114996;27;39277;-79
2021/11/03 16:41:33;;;;;;;2.43;1.77;;;;;;;10.69;71.60;97378.34;5122277;27;41132;-79
2021/11/03 16:44:19;;;;;;;3.00;1.80;;;;;;;10.66;72.07;97378.59;5129947;27;42633;-79
2021/11/03 16:46:48;;;;;;;2.13;1.70;;;;;;;10.64;72.13;97377.91;5116535;27;41141;-80
2021/11/03 16:49:18;;;;;;;2.80;1.90;;;;;;;10.62;71.91;97382.50;5132536;27;39343;-82
2021/11/03 16:51:45;;;;;;;1.77;1.57;;;;;;;10.62;71.69;97387.81;5129154;27;44074;-78
2021/11/03 16:54:14;;;;;;;1.67;1.57;;;;;;;10.61;72.16;97381.69;5130305;27;42830;-80
2021/11/03 16:56:41;;;;;;;2.10;1.90;;;;;;;10.58;72.24;97381.94;5112847;27;41292;-78
2021/11/03 16:59:10;;;;;;;2.97;1.93;;;;;;;10.56;72.36;97388.31;5132963;27;39107;-78
2021/11/03 17:01:37;;;;;;;3.00;1.87;;;;;;;10.55;72.50;97386.63;5132926;27;41739;-77
2021/11/03 17:04:08;;;;;;;3.03;2.40;;;;;;;10.41;72.72;97372.78;5135028;27;41621;-78
2021/11/03 17:06:41;;;;;;;3.23;2.03;;;;;;;10.49;72.82;97376.59;5135825;27;42238;-78
2021/11/03 17:09:15;;;;;;;3.13;2.73;;;;;;;10.47;72.98;97371.44;5136693;27;40902;-78
2021/11/03 17:11:45;;;;;;;2.37;2.17;;;;;;;10.46;72.92;97374.19;5115286;27;41067;-78
2021/11/03 17:14:17;;;;;;;2.70;2.07;;;;;;;10.45;73.01;97376.00;5134168;27;43815;-77
2021/11/03 17:16:45;;;;;;;2.70;2.50;;;;;;;10.33;72.93;97366.47;5132138;27;41487;-78
2021/11/03 17:19:13;;;;;;;2.13;1.87;;;;;;;10.39;73.24;97387.94;5114963;27;39386;-79
2021/11/03 17:21:42;;;;;;;2.17;1.80;;;;;;;10.38;73.26;97375.72;5115417;27;40678;-79
2021/11/03 17:24:10;;;;;;;4.97;3.37;;;;;;;10.35;74.03;97378.59;5131775;27;43215;-78
2021/11/03 17:26:42;;;;;;;4.10;2.57;;;;;;;10.34;74.08;97384.88;5131786;27;42503;-79
2021/11/03 17:29:19;;;;;;;5.70;2.97;;;;;;;10.33;74.18;97388.47;5135742;27;41466;-77
2021/11/03 17:31:49;;;;;;;3.67;2.73;;;;;;;10.21;74.03;97378.94;5137157;27;40592;-79
2021/11/03 17:34:16;;;;;;;2.33;2.13;;;;;;;10.29;74.18;97387.06;5136532;27;43947;-78
2021/11/03 17:36:46;;;;;;;3.17;2.37;;;;;;;10.29;73.98;97387.06;5120330;27;42020;-80
2021/11/03 17:39:14;;;;;;;3.17;2.20;;;;;;;10.30;74.12;97393.19;5119791;27;39104;-79
2021/11/03 17:41:45;;;;;;;3.67;2.90;;;;;;;10.26;73.92;97392.59;5135895;27;42876;-79
2021/11/03 17:44:21;;;;;;;2.93;2.23;;;;;;;10.27;74.24;97399.56;5134245;27;43507;-78
2021/11/03 17:46:50;;;;;;;2.93;2.70;;;;;;;10.26;74.16;97397.88;5132129;27;42665;-79
2021/11/03 17:49:23;;;;;;;2.17;1.97;;;;;;;10.23;74.36;97387.59;5132613;27;39007;-78
2021/11/03 17:51:53;;;;;;;2.50;1.60;;;;;;;10.23;74.45;97398.16;5135759;27;42032;-79
2021/11/03 17:54:21;;;;;;;2.67;1.83;;;;;;;10.19;74.44;97396.75;5152705;27;41852;-78
2021/11/03 17:56:49;;;;;;;1.73;1.63;;;;;;;10.23;74.18;97406.09;5144499;27;42499;-79
2021/11/03 17:59:21;;;;;;;3.10;2.00;;;;;;;10.23;74.26;97419.34;5133940;27;39929;-78
2021/11/03 18:01:52;;;;;;;2.37;2.17;;;;;;;10.24;74.16;97413.06;5131874;27;42547;-79
2021/11/03 18:04:21;;;;;;;3.00;1.77;;;;;;;10.22;74.23;97404.44;5114962;27;42037;-78
2021/11/03 18:06:49;;;;;;;3.13;1.97;;;;;;;10.23;74.27;97413.19;5114177;27;42180;-78
2021/11/03 18:09:19;;;;;;;2.63;2.00;;;;;;;10.24;74.49;97421.00;5131681;27;40184;-79
2021/11/03 18:11:49;;;;;;;2.77;1.77;;;;;;;10.23;74.47;97421.97;5132021;27;41760;-78
2021/11/03 18:14:24;;;;;;;1.87;1.63;;;;;;;10.25;74.14;97433.28;5113772;27;42618;-79
2021/11/03 18:16:53;;;;;;;2.73;1.70;;;;;;;10.24;74.38;97431.59;5114399;27;42232;-78
2021/11/03 18:19:24;;;;;;;1.57;1.47;;;;;;;10.23;74.23;97431.72;5113818;27;39514;-78
2021/11/03 18:21:52;;;;;;;2.00;1.80;;;;;;;10.22;74.18;97422.09;5113990;27;42095;-80
2021/11/03 18:24:23;;;;;;;1.87;1.50;;;;;;;10.09;74.70;97395.81;5130765;27;42585;-77
2021/11/03 18:26:53;;;;;;;2.60;1.80;;;;;;;10.20;74.32;97418.75;5122815;27;42076;-78
2021/11/03 18:29:25;;;;;;;3.10;1.53;;;;;;;10.16;74.58;97412.81;5146201;27;40671;-78
2021/11/03 18:31:53;;;;;;;2.83;1.60;;;;;;;10.18;74.82;97424.16;5129454;27;42210;-76
2021/11/03 18:34:24;;;;;;;1.80;1.57;;;;;;;10.15;74.75;97415.59;5129522;27;43104;-78
2021/11/03 18:36:54;;;;;;;2.13;1.53;;;;;;;10.16;75.08;97422.56;5137106;27;42509;-78
2021/11/03 18:39:24;;;;;;;1.37;1.30;;;;;;;10.16;75.13;97420.75;5133923;27;39074;-79
2021/11/03 18:41:56;;;;;;;1.70;1.60;;;;;;;10.17;75.12;97429.53;5151326;27;42156;-77
2021/11/03 18:44:26;;;;;;;3.67;1.53;;;;;;;10.15;74.98;97437.59;5152395;27;43700;-78
2021/11/03 18:46:58;;;;;;;3.30;2.70;;;;;;;10.10;74.91;97439.81;5141653;27;41086;-79
2021/11/03 18:49:26;;;;;;;3.13;1.70;;;;;;;10.15;75.41;97448.19;5131218;27;41064;-79
2021/11/03 18:51:57;;;;;;;2.03;1.90;;;;;;;10.15;75.20;97440.25;5139916;27;41996;-77
2021/11/03 18:54:30;;;;;;;4.03;2.80;;;;;;;10.12;75.59;97437.03;5133249;27;41948;-78
2021/11/03 18:56:58;;;;;;;3.93;2.63;;;;;;;10.08;75.75;97452.31;5133139;27;41527;-78
2021/11/03 18:59:26;;;;;;;5.23;3.90;;;;;;;10.12;75.94;97442.31;5150795;27;40473;-77
